createdAt,value
2022-08-17T00:00:34.857Z,17.94
2022-08-17T00:01:15.089Z,17.94
2022-08-17T00:02:25.291Z,17.94
2022-08-17T00:03:15.116Z,17.91
2022-08-17T00:04:14.095Z,17.89
2022-08-17T00:05:13.995Z,17.89
2022-08-17T00:06:13.964Z,17.88
2022-08-17T00:07:13.970Z,17.89
2022-08-17T00:08:13.984Z,17.88
2022-08-17T00:09:13.882Z,17.88
2022-08-17T00:10:14.884Z,17.85
2022-08-17T00:11:13.853Z,17.87
2022-08-17T00:12:43.565Z,17.85
2022-08-17T00:13:14.848Z,17.82
2022-08-17T00:14:13.896Z,17.82
2022-08-17T00:15:13.787Z,17.82
2022-08-17T00:16:13.937Z,17.79
2022-08-17T00:17:13.775Z,17.78
2022-08-17T00:19:04.175Z,17.76
2022-08-17T00:19:14.748Z,17.73
2022-08-17T00:20:13.749Z,17.74
2022-08-17T00:21:13.740Z,17.70
2022-08-17T00:22:34.647Z,17.71
2022-08-17T00:23:14.736Z,17.70
2022-08-17T00:24:14.550Z,17.69
2022-08-17T00:25:14.448Z,17.66
2022-08-17T00:26:14.312Z,17.64
2022-08-17T00:27:13.652Z,17.64
2022-08-17T00:28:13.650Z,17.63
2022-08-17T00:29:19.512Z,17.62
2022-08-17T00:30:14.589Z,17.59
2022-08-17T00:31:13.613Z,17.57
2022-08-17T00:33:15.478Z,17.54
2022-08-17T00:33:17.089Z,17.55
2022-08-17T00:34:13.554Z,17.55
2022-08-17T00:35:13.577Z,17.55
2022-08-17T00:36:13.519Z,17.54
2022-08-17T00:37:13.742Z,17.54
2022-08-17T00:38:13.525Z,17.53
2022-08-17T00:39:13.523Z,17.51
2022-08-17T00:40:13.543Z,17.50
2022-08-17T00:41:13.435Z,17.50
2022-08-17T00:42:14.357Z,17.46
2022-08-17T00:43:13.439Z,17.46
2022-08-17T00:44:13.509Z,17.46
2022-08-17T00:45:13.483Z,17.43
2022-08-17T00:46:13.405Z,17.40
2022-08-17T00:47:13.373Z,17.41
2022-08-17T00:48:29.681Z,17.40
2022-08-17T00:49:14.430Z,17.36
2022-08-17T00:50:13.381Z,17.35
2022-08-17T00:51:13.307Z,17.32
2022-08-17T00:52:13.315Z,17.29
2022-08-17T00:53:13.300Z,17.28
2022-08-17T00:54:13.309Z,17.26
2022-08-17T00:55:13.279Z,17.23
2022-08-17T00:56:13.253Z,17.23
2022-08-17T00:57:13.268Z,17.23
2022-08-17T00:58:13.274Z,17.22
2022-08-17T00:59:13.278Z,17.22
2022-08-17T01:00:13.311Z,17.22
2022-08-17T01:01:13.346Z,17.22
2022-08-17T01:02:14.195Z,17.20
2022-08-17T01:03:13.159Z,17.17
2022-08-17T01:04:13.144Z,17.14
2022-08-17T01:05:13.283Z,17.15
2022-08-17T01:06:13.112Z,17.14
2022-08-17T01:07:13.237Z,17.11
2022-08-17T01:08:13.098Z,17.08
2022-08-17T01:09:13.081Z,17.06
2022-08-17T01:10:58.229Z,17.06
2022-08-17T01:11:14.071Z,17.00
2022-08-17T01:12:13.053Z,17.00
2022-08-17T01:13:13.065Z,16.99
2022-08-17T01:14:13.014Z,16.99
2022-08-17T01:15:13.208Z,16.96
2022-08-17T01:16:13.020Z,16.98
2022-08-17T01:17:13.062Z,16.96
2022-08-17T01:18:12.947Z,16.96
2022-08-17T01:19:12.944Z,16.96
2022-08-17T01:20:13.132Z,16.96
2022-08-17T01:21:12.966Z,16.96
2022-08-17T01:22:12.999Z,16.96
2022-08-17T01:23:12.964Z,16.96
2022-08-17T01:24:13.935Z,16.96
2022-08-17T01:25:12.871Z,16.95
2022-08-17T01:26:12.878Z,16.93
2022-08-17T01:27:12.864Z,16.92
2022-08-17T01:28:12.847Z,16.93
2022-08-17T01:29:13.879Z,16.90
2022-08-17T01:30:56.548Z,16.93
2022-08-17T01:31:13.860Z,16.93
2022-08-17T01:32:12.800Z,16.90
2022-08-17T01:33:12.759Z,16.90
2022-08-17T01:34:12.804Z,16.90
2022-08-17T01:35:12.738Z,16.89
2022-08-17T01:36:12.748Z,16.89
2022-08-17T01:37:12.804Z,16.88
2022-08-17T01:38:12.693Z,16.88
2022-08-17T01:39:12.740Z,16.86
2022-08-17T01:40:12.747Z,16.86
2022-08-17T01:41:12.752Z,16.85
2022-08-17T01:42:12.655Z,16.83
2022-08-17T01:43:12.623Z,16.81
2022-08-17T01:44:12.644Z,16.80
2022-08-17T01:45:12.604Z,16.80
2022-08-17T01:46:12.617Z,16.78
2022-08-17T01:47:12.584Z,16.77
2022-08-17T01:48:12.656Z,16.75
2022-08-17T01:49:12.564Z,16.74
2022-08-17T01:50:12.581Z,16.74
2022-08-17T01:51:12.517Z,16.71
2022-08-17T01:52:12.528Z,16.71
2022-08-17T01:53:12.535Z,16.71
2022-08-17T01:54:12.507Z,16.70
2022-08-17T01:55:12.515Z,16.68
2022-08-17T01:56:12.474Z,16.68
2022-08-17T01:57:12.519Z,16.73
2022-08-17T01:58:12.500Z,16.73
2022-08-17T01:59:12.418Z,16.71
2022-08-17T02:00:12.463Z,16.70
2022-08-17T02:01:12.451Z,16.70
2022-08-17T02:02:12.394Z,16.67
2022-08-17T02:03:13.361Z,16.63
2022-08-17T02:04:12.343Z,16.60
2022-08-17T02:05:12.367Z,16.59
2022-08-17T02:06:27.640Z,16.58
2022-08-17T02:07:13.411Z,16.55
2022-08-17T02:08:18.429Z,16.55
2022-08-17T02:09:16.983Z,16.55
2022-08-17T02:10:20.099Z,16.53
2022-08-17T02:11:13.251Z,16.52
2022-08-17T02:12:37.802Z,16.50
2022-08-17T02:13:13.291Z,16.52
2022-08-17T02:14:12.287Z,16.50
2022-08-17T02:15:12.237Z,16.52
2022-08-17T02:16:12.191Z,16.52
2022-08-17T02:17:12.502Z,16.50
2022-08-17T02:18:12.203Z,16.49
2022-08-17T02:19:12.210Z,16.49
2022-08-17T02:20:12.166Z,16.48
2022-08-17T02:21:12.120Z,16.44
2022-08-17T02:22:12.122Z,16.42
2022-08-17T02:23:12.115Z,16.41
2022-08-17T02:24:12.091Z,16.41
2022-08-17T02:25:12.101Z,16.40
2022-08-17T02:26:12.088Z,16.38
2022-08-17T02:27:13.098Z,16.38
2022-08-17T02:28:12.043Z,16.37
2022-08-17T02:29:12.050Z,16.37
2022-08-17T02:31:00.646Z,16.37
2022-08-17T02:31:13.055Z,16.34
2022-08-17T02:32:12.020Z,16.33
2022-08-17T02:33:12.996Z,16.33
2022-08-17T02:34:12.004Z,16.33
2022-08-17T02:35:11.975Z,16.33
2022-08-17T02:36:12.023Z,16.33
2022-08-17T02:37:11.931Z,16.31
2022-08-17T02:38:11.899Z,16.31
2022-08-17T02:39:11.990Z,16.31
2022-08-17T02:40:11.988Z,16.30
2022-08-17T02:41:11.860Z,16.30
2022-08-17T02:42:11.840Z,16.30
2022-08-17T02:43:12.410Z,16.30
2022-08-17T02:44:12.175Z,16.30
2022-08-17T02:45:11.867Z,16.31
2022-08-17T02:46:11.792Z,16.30
2022-08-17T02:47:11.905Z,16.30
2022-08-17T02:48:11.832Z,16.31
2022-08-17T02:49:12.496Z,16.30
2022-08-17T02:50:11.764Z,16.30
2022-08-17T02:51:11.759Z,16.27
2022-08-17T02:52:11.713Z,16.26
2022-08-17T02:53:11.774Z,16.27
2022-08-17T02:54:40.183Z,16.27
2022-08-17T02:55:12.683Z,16.25
2022-08-17T02:56:11.777Z,16.25
2022-08-17T02:57:11.711Z,16.23
2022-08-17T02:58:11.635Z,16.22
2022-08-17T02:59:11.631Z,16.22
2022-08-17T03:00:11.669Z,16.22
2022-08-17T03:01:11.653Z,16.20
2022-08-17T03:02:11.673Z,16.18
2022-08-17T03:03:11.621Z,16.18
2022-08-17T03:04:11.565Z,16.20
2022-08-17T03:05:11.699Z,16.20
2022-08-17T03:06:11.528Z,16.18
2022-08-17T03:07:11.519Z,16.20
2022-08-17T03:08:13.035Z,16.20
2022-08-17T03:09:11.561Z,16.18
2022-08-17T03:10:11.559Z,16.18
2022-08-17T03:11:11.525Z,16.16
2022-08-17T03:12:11.463Z,16.18
2022-08-17T03:13:11.479Z,16.16
2022-08-17T03:14:12.563Z,16.16
2022-08-17T03:15:11.431Z,16.16
2022-08-17T03:16:11.400Z,16.18
2022-08-17T03:17:16.942Z,16.16
2022-08-17T03:18:19.191Z,16.15
2022-08-17T03:19:12.374Z,16.16
2022-08-17T03:20:11.364Z,16.14
2022-08-17T03:21:11.336Z,16.12
2022-08-17T03:22:36.599Z,16.12
2022-08-17T03:23:12.315Z,16.11
2022-08-17T03:24:11.290Z,16.11
2022-08-17T03:25:11.315Z,16.09
2022-08-17T03:26:12.296Z,16.09
2022-08-17T03:27:11.267Z,16.07
2022-08-17T03:28:11.257Z,16.09
2022-08-17T03:29:11.229Z,16.07
2022-08-17T03:30:11.226Z,16.06
2022-08-17T03:31:11.192Z,16.04
2022-08-17T03:32:11.191Z,16.03
2022-08-17T03:33:11.297Z,15.99
2022-08-17T03:34:11.200Z,15.99
2022-08-17T03:35:12.085Z,15.99
2022-08-17T03:36:11.162Z,15.99
2022-08-17T03:37:11.126Z,15.97
2022-08-17T03:38:11.198Z,15.97
2022-08-17T03:39:11.097Z,15.97
2022-08-17T03:40:11.440Z,15.96
2022-08-17T03:41:11.136Z,15.94
2022-08-17T03:42:31.596Z,15.93
2022-08-17T03:43:12.060Z,15.92
2022-08-17T03:44:11.067Z,15.93
2022-08-17T03:45:11.014Z,15.94
2022-08-17T03:46:34.422Z,15.92
2022-08-17T03:47:12.029Z,15.89
2022-08-17T03:48:11.009Z,15.89
2022-08-17T03:49:11.072Z,15.89
2022-08-17T03:50:10.942Z,15.89
2022-08-17T03:51:14.656Z,15.88
2022-08-17T03:52:11.080Z,15.89
2022-08-17T03:53:10.993Z,15.92
2022-08-17T03:54:10.906Z,15.93
2022-08-17T03:55:10.873Z,15.92
2022-08-17T03:56:10.962Z,15.92
2022-08-17T03:57:10.884Z,15.92
2022-08-17T03:58:10.873Z,15.92
2022-08-17T03:59:10.821Z,15.92
2022-08-17T04:00:12.004Z,15.88
2022-08-17T04:01:10.858Z,15.88
2022-08-17T04:02:10.836Z,15.86
2022-08-17T04:03:10.805Z,15.86
2022-08-17T04:04:10.795Z,15.85
2022-08-17T04:05:10.752Z,15.86
2022-08-17T04:06:10.752Z,15.86
2022-08-17T04:07:10.837Z,15.86
2022-08-17T04:08:10.766Z,15.88
2022-08-17T04:09:10.728Z,15.86
2022-08-17T04:10:10.768Z,15.88
2022-08-17T04:11:10.677Z,15.86
2022-08-17T04:12:10.677Z,15.85
2022-08-17T04:13:10.688Z,15.84
2022-08-17T04:14:10.696Z,15.82
2022-08-17T04:15:10.662Z,15.81
2022-08-17T04:16:10.613Z,15.84
2022-08-17T04:17:10.589Z,15.85
2022-08-17T04:18:11.051Z,15.86
2022-08-17T04:19:10.725Z,15.85
2022-08-17T04:20:10.551Z,15.85
2022-08-17T04:21:10.648Z,15.84
2022-08-17T04:22:10.554Z,15.84
2022-08-17T04:23:11.561Z,15.84
2022-08-17T04:24:10.540Z,15.82
2022-08-17T04:25:10.505Z,15.81
2022-08-17T04:26:10.481Z,15.79
2022-08-17T04:27:11.503Z,15.81
2022-08-17T04:28:15.825Z,15.79
2022-08-17T04:29:11.443Z,15.81
2022-08-17T04:30:10.423Z,15.81
2022-08-17T04:31:10.431Z,15.84
2022-08-17T04:32:10.395Z,15.82
2022-08-17T04:33:10.574Z,15.86
2022-08-17T04:34:10.374Z,15.86
2022-08-17T04:35:10.404Z,15.88
2022-08-17T04:36:10.363Z,15.89
2022-08-17T04:37:10.343Z,15.92
2022-08-17T04:38:10.470Z,15.93
2022-08-17T04:39:10.325Z,15.96
2022-08-17T04:40:10.466Z,15.99
2022-08-17T04:41:10.429Z,15.99
2022-08-17T04:42:10.267Z,16.01
2022-08-17T04:43:10.276Z,16.07
2022-08-17T04:44:10.487Z,16.09
2022-08-17T04:45:10.253Z,16.14
2022-08-17T04:46:10.281Z,16.15
2022-08-17T04:47:10.649Z,16.18
2022-08-17T04:48:10.207Z,16.20
2022-08-17T04:49:10.208Z,16.23
2022-08-17T04:50:10.158Z,16.26
2022-08-17T04:51:10.444Z,16.27
2022-08-17T04:52:10.200Z,16.33
2022-08-17T04:53:11.156Z,16.35
2022-08-17T04:54:10.196Z,16.38
2022-08-17T04:55:10.181Z,16.42
2022-08-17T04:56:11.629Z,16.45
2022-08-17T04:57:11.071Z,16.45
2022-08-17T04:58:10.071Z,16.48
2022-08-17T04:59:10.047Z,16.50
2022-08-17T05:00:10.019Z,16.53
2022-08-17T05:01:10.132Z,16.55
2022-08-17T05:02:10.005Z,16.56
2022-08-17T05:03:10.033Z,16.60
2022-08-17T05:04:33.234Z,16.62
2022-08-17T05:05:10.953Z,16.65
2022-08-17T05:06:09.940Z,16.70
2022-08-17T05:07:09.933Z,16.73
2022-08-17T05:08:09.905Z,16.75
2022-08-17T05:09:10.623Z,16.78
2022-08-17T05:10:09.886Z,16.83
2022-08-17T05:11:09.869Z,16.86
2022-08-17T05:12:09.867Z,16.90
2022-08-17T05:13:09.903Z,16.95
2022-08-17T05:14:09.876Z,17.00
2022-08-17T05:15:09.845Z,17.06
2022-08-17T05:16:10.057Z,17.13
2022-08-17T05:17:11.334Z,17.17
2022-08-17T05:18:09.800Z,17.20
2022-08-17T05:19:09.857Z,17.26
2022-08-17T05:20:09.886Z,17.33
2022-08-17T05:21:09.810Z,17.40
2022-08-17T05:22:09.730Z,17.48
2022-08-17T05:23:09.769Z,17.53
2022-08-17T05:24:13.540Z,17.55
2022-08-17T05:25:10.689Z,17.63
2022-08-17T05:26:10.333Z,17.67
2022-08-17T05:27:10.661Z,17.73
2022-08-17T05:28:10.659Z,17.74
2022-08-17T05:29:09.729Z,17.79
2022-08-17T05:30:09.667Z,17.85
2022-08-17T05:31:09.612Z,17.89
2022-08-17T05:32:38.418Z,17.94
2022-08-17T05:33:10.611Z,18.00
2022-08-17T05:34:09.671Z,18.03
2022-08-17T05:35:09.632Z,18.07
2022-08-17T05:36:09.611Z,18.12
2022-08-17T05:37:10.536Z,18.18
2022-08-17T05:38:09.511Z,18.22
2022-08-17T05:39:15.601Z,18.27
2022-08-17T05:40:10.583Z,18.31
2022-08-17T05:41:09.526Z,18.39
2022-08-17T05:42:09.540Z,18.43
2022-08-17T05:43:09.456Z,18.49
2022-08-17T05:44:09.502Z,18.55
2022-08-17T05:45:09.443Z,18.59
2022-08-17T05:46:09.434Z,18.64
2022-08-17T05:47:09.824Z,18.68
2022-08-17T05:48:09.515Z,18.70
2022-08-17T05:49:09.377Z,18.76
2022-08-17T05:50:09.997Z,18.82
2022-08-17T05:51:09.418Z,18.84
2022-08-17T05:52:09.345Z,18.91
2022-08-17T05:53:09.467Z,18.98
2022-08-17T05:54:09.409Z,19.05
2022-08-17T05:55:09.311Z,19.10
2022-08-17T05:56:22.360Z,19.17
2022-08-17T05:57:10.290Z,19.25
2022-08-17T05:58:09.328Z,19.33
2022-08-17T05:59:09.284Z,19.39
2022-08-17T06:00:09.883Z,19.48
2022-08-17T06:01:09.292Z,19.55
2022-08-17T06:02:09.204Z,19.60
2022-08-17T06:03:09.300Z,19.69
2022-08-17T06:04:09.196Z,19.72
2022-08-17T06:05:09.200Z,19.78
2022-08-17T06:06:09.141Z,19.84
2022-08-17T06:07:09.172Z,19.93
2022-08-17T06:08:09.119Z,20.00
2022-08-17T06:09:09.100Z,20.08
2022-08-17T06:10:09.112Z,20.13
2022-08-17T06:11:09.147Z,20.23
2022-08-17T06:12:09.105Z,20.30
2022-08-17T06:13:10.114Z,20.38
2022-08-17T06:14:09.064Z,20.42
2022-08-17T06:15:09.091Z,20.49
2022-08-17T06:16:32.918Z,20.53
2022-08-17T06:17:10.005Z,20.59
2022-08-17T06:18:09.063Z,20.65
2022-08-17T06:19:08.994Z,20.68
2022-08-17T06:20:08.968Z,20.76
2022-08-17T06:21:08.967Z,20.83
2022-08-17T06:22:08.963Z,20.89
2022-08-17T06:23:08.991Z,20.99
2022-08-17T06:24:08.928Z,21.05
2022-08-17T06:25:10.363Z,21.09
2022-08-17T06:26:08.941Z,21.13
2022-08-17T06:27:08.969Z,21.13
2022-08-17T06:28:08.909Z,21.19
2022-08-17T06:29:09.856Z,21.26
2022-08-17T06:30:09.828Z,21.32
2022-08-17T06:31:08.850Z,21.39
2022-08-17T06:32:08.898Z,21.46
2022-08-17T06:33:08.858Z,21.57
2022-08-17T06:34:08.793Z,21.69
2022-08-17T06:35:08.772Z,21.85
2022-08-17T06:36:09.662Z,22.02
2022-08-17T06:37:08.847Z,22.14
2022-08-17T06:38:09.180Z,22.34
2022-08-17T06:39:09.757Z,22.41
2022-08-17T06:40:08.826Z,22.49
2022-08-17T06:41:08.798Z,22.59
2022-08-17T06:42:08.700Z,22.72
2022-08-17T06:43:10.123Z,22.89
2022-08-17T06:44:08.794Z,23.02
2022-08-17T06:45:08.653Z,23.15
2022-08-17T06:46:09.524Z,23.32
2022-08-17T06:47:08.643Z,23.43
2022-08-17T06:48:08.662Z,23.47
2022-08-17T06:49:08.617Z,23.53
2022-08-17T06:50:08.672Z,23.62
2022-08-17T06:51:08.589Z,23.68
2022-08-17T06:52:08.567Z,23.72
2022-08-17T06:53:08.556Z,23.80
2022-08-17T06:54:08.539Z,23.86
2022-08-17T06:55:08.500Z,23.95
2022-08-17T06:56:09.617Z,24.00
2022-08-17T06:57:08.480Z,24.01
2022-08-17T06:58:15.885Z,24.05
2022-08-17T06:59:10.460Z,24.10
2022-08-17T07:00:08.951Z,24.14
2022-08-17T07:01:08.555Z,24.17
2022-08-17T07:02:08.467Z,24.22
2022-08-17T07:03:08.804Z,24.23
2022-08-17T07:04:12.197Z,24.26
2022-08-17T07:05:08.440Z,24.27
2022-08-17T07:06:08.368Z,24.27
2022-08-17T07:07:08.434Z,24.31
2022-08-17T07:08:08.485Z,24.31
2022-08-17T07:09:08.739Z,24.27
2022-08-17T07:10:08.541Z,24.31
2022-08-17T07:11:09.264Z,24.31
2022-08-17T07:12:08.572Z,24.26
2022-08-17T07:13:09.775Z,24.24
2022-08-17T07:14:08.323Z,24.17
2022-08-17T07:15:08.252Z,24.17
2022-08-17T07:16:08.371Z,24.17
2022-08-17T07:17:08.205Z,24.23
2022-08-17T07:18:08.227Z,24.26
2022-08-17T07:19:10.850Z,24.32
2022-08-17T07:20:08.222Z,24.37
2022-08-17T07:21:08.225Z,24.47
2022-08-17T07:22:08.178Z,24.57
2022-08-17T07:23:08.151Z,24.64
2022-08-17T07:24:08.251Z,24.73
2022-08-17T07:25:08.129Z,24.79
2022-08-17T07:26:08.112Z,24.87
2022-08-17T07:27:08.124Z,24.94
2022-08-17T07:28:08.125Z,25.00
2022-08-17T07:29:08.160Z,25.10
2022-08-17T07:30:10.585Z,25.17
2022-08-17T07:31:08.068Z,25.25
2022-08-17T07:32:08.015Z,25.27
2022-08-17T07:33:08.119Z,25.27
2022-08-17T07:34:09.061Z,25.28
2022-08-17T07:35:08.075Z,25.34
2022-08-17T07:36:08.917Z,25.43
2022-08-17T07:37:08.127Z,25.52
2022-08-17T07:38:25.282Z,25.61
2022-08-17T07:39:08.967Z,25.68
2022-08-17T07:40:16.300Z,25.74
2022-08-17T07:41:09.119Z,25.83
2022-08-17T07:42:07.908Z,25.94
2022-08-17T07:43:08.755Z,26.04
2022-08-17T07:44:09.004Z,26.05
2022-08-17T07:45:07.953Z,26.08
2022-08-17T07:46:07.871Z,26.18
2022-08-17T07:47:07.827Z,26.20
2022-08-17T07:48:07.825Z,26.18
2022-08-17T07:49:08.705Z,26.24
2022-08-17T07:50:08.591Z,26.31
2022-08-17T07:51:09.371Z,26.29
2022-08-17T07:52:48.492Z,26.31
2022-08-17T07:53:08.785Z,26.31
2022-08-17T07:54:14.351Z,26.35
2022-08-17T07:55:08.991Z,26.37
2022-08-17T07:56:07.709Z,26.47
2022-08-17T07:57:07.717Z,26.57
2022-08-17T07:58:07.680Z,26.59
2022-08-17T07:59:07.671Z,26.61
2022-08-17T08:00:07.751Z,26.67
2022-08-17T08:01:08.741Z,26.73
2022-08-17T08:02:08.658Z,26.79
2022-08-17T08:03:08.881Z,26.86
2022-08-17T08:04:07.718Z,26.87
2022-08-17T08:05:08.845Z,26.87
2022-08-17T08:06:07.922Z,26.91
2022-08-17T08:07:07.615Z,26.92
2022-08-17T08:08:07.767Z,26.99
2022-08-17T08:09:07.605Z,27.05
2022-08-17T08:10:08.126Z,27.09
2022-08-17T08:11:07.524Z,27.20
2022-08-17T08:12:07.510Z,27.32
2022-08-17T08:13:08.814Z,27.46
2022-08-17T08:14:08.510Z,27.54
2022-08-17T08:15:08.828Z,27.61
2022-08-17T08:16:07.681Z,27.62
2022-08-17T08:17:09.484Z,27.66
2022-08-17T08:18:07.512Z,27.67
2022-08-17T08:19:07.422Z,27.69
2022-08-17T08:20:52.466Z,27.80
2022-08-17T08:21:08.397Z,27.84
2022-08-17T08:22:07.358Z,27.92
2022-08-17T08:23:07.357Z,27.95
2022-08-17T08:24:07.362Z,27.98
2022-08-17T08:25:07.349Z,28.04
2022-08-17T08:26:07.519Z,28.09
2022-08-17T08:27:07.347Z,28.16
2022-08-17T08:28:07.404Z,28.21
2022-08-17T08:29:07.274Z,28.32
2022-08-17T08:30:07.272Z,28.50
2022-08-17T08:31:07.352Z,28.66
2022-08-17T08:32:07.340Z,28.82
2022-08-17T08:33:08.054Z,28.85
2022-08-17T08:34:07.313Z,28.87
2022-08-17T08:35:08.240Z,28.84
2022-08-17T08:36:07.540Z,28.84
2022-08-17T08:37:16.479Z,28.91
2022-08-17T08:38:08.174Z,29.00
2022-08-17T08:39:07.141Z,29.13
2022-08-17T08:40:07.667Z,29.19
2022-08-17T08:41:08.311Z,29.16
2022-08-17T08:42:07.109Z,29.26
2022-08-17T08:43:07.155Z,29.33
2022-08-17T08:44:07.100Z,29.43
2022-08-17T08:45:07.089Z,29.47
2022-08-17T08:46:07.103Z,29.50
2022-08-17T08:47:08.230Z,29.45
2022-08-17T08:48:22.781Z,29.50
2022-08-17T08:49:10.021Z,29.56
2022-08-17T08:50:07.035Z,29.65
2022-08-17T08:51:08.948Z,29.77
2022-08-17T08:52:07.125Z,29.92
2022-08-17T08:53:07.058Z,30.03
2022-08-17T08:54:06.993Z,30.14
2022-08-17T08:55:07.135Z,30.27
2022-08-17T08:56:06.934Z,30.07
2022-08-17T08:57:27.809Z,30.14
2022-08-17T08:58:08.161Z,30.16
2022-08-17T08:59:07.919Z,30.15
2022-08-17T09:00:06.907Z,30.14
2022-08-17T09:01:07.091Z,30.23
2022-08-17T09:02:06.946Z,30.19
2022-08-17T09:03:06.879Z,30.12
2022-08-17T09:04:23.310Z,30.07
2022-08-17T09:05:14.426Z,30.12
2022-08-17T09:06:33.600Z,30.12
2022-08-17T09:07:07.830Z,30.16
2022-08-17T09:08:06.852Z,30.14
2022-08-17T09:09:06.792Z,30.08
2022-08-17T09:10:06.740Z,30.08
2022-08-17T09:11:06.728Z,30.15
2022-08-17T09:12:06.911Z,30.12
2022-08-17T09:13:10.249Z,30.15
2022-08-17T09:14:06.732Z,30.29
2022-08-17T09:15:12.411Z,30.38
2022-08-17T09:16:07.830Z,30.54
2022-08-17T09:17:07.155Z,30.69
2022-08-17T09:19:01.293Z,30.83
2022-08-17T09:19:07.870Z,30.96
2022-08-17T09:20:06.674Z,31.05
2022-08-17T09:21:06.763Z,31.12
2022-08-17T09:22:06.630Z,30.99
2022-08-17T09:23:06.596Z,30.83
2022-08-17T09:24:06.577Z,30.72
2022-08-17T09:25:06.644Z,30.53
2022-08-17T09:26:06.552Z,30.53
2022-08-17T09:27:06.562Z,30.61
2022-08-17T09:28:07.384Z,30.69
2022-08-17T09:29:06.679Z,30.81
2022-08-17T09:30:06.498Z,30.84
2022-08-17T09:31:06.732Z,30.83
2022-08-17T09:32:06.510Z,30.75
2022-08-17T09:33:06.478Z,30.71
2022-08-17T09:34:06.448Z,30.76
2022-08-17T09:35:06.456Z,30.81
2022-08-17T09:36:06.533Z,30.86
2022-08-17T09:37:06.571Z,30.84
2022-08-17T09:38:06.635Z,30.69
2022-08-17T09:39:06.387Z,30.72
2022-08-17T09:40:06.412Z,30.75
2022-08-17T09:41:06.438Z,30.72
2022-08-17T09:42:06.379Z,30.74
2022-08-17T09:43:06.632Z,30.78
2022-08-17T09:44:22.555Z,30.87
2022-08-17T09:45:07.335Z,30.98
2022-08-17T09:46:06.317Z,31.12
2022-08-17T09:47:06.345Z,31.30
2022-08-17T09:48:07.501Z,31.46
2022-08-17T09:49:06.284Z,31.48
2022-08-17T09:50:06.296Z,31.54
2022-08-17T09:51:06.714Z,31.60
2022-08-17T09:52:06.209Z,31.42
2022-08-17T09:53:06.678Z,31.42
2022-08-17T09:54:36.970Z,31.54
2022-08-17T09:55:07.690Z,31.53
2022-08-17T09:56:07.241Z,31.61
2022-08-17T09:57:28.665Z,31.75
2022-08-17T09:58:07.300Z,31.91
2022-08-17T09:59:06.204Z,31.98
2022-08-17T10:00:06.100Z,31.77
2022-08-17T10:01:06.177Z,31.65
2022-08-17T10:02:06.162Z,31.70
2022-08-17T10:03:06.081Z,31.82
2022-08-17T10:04:06.177Z,31.92
2022-08-17T10:05:06.042Z,31.98
2022-08-17T10:06:06.366Z,31.99
2022-08-17T10:07:06.607Z,31.93
2022-08-17T10:08:06.108Z,31.96
2022-08-17T10:09:07.026Z,32.00
2022-08-17T10:10:08.667Z,31.93
2022-08-17T10:11:07.856Z,31.77
2022-08-17T10:12:06.136Z,31.58
2022-08-17T10:13:06.055Z,31.49
2022-08-17T10:14:31.865Z,31.40
2022-08-17T10:15:08.181Z,31.28
2022-08-17T10:16:06.142Z,31.20
2022-08-17T10:17:06.025Z,31.18
2022-08-17T10:18:06.673Z,31.27
2022-08-17T10:19:05.861Z,31.28
2022-08-17T10:20:05.980Z,31.43
2022-08-17T10:21:05.822Z,31.64
2022-08-17T10:22:32.345Z,31.76
2022-08-17T10:23:06.833Z,31.65
2022-08-17T10:24:05.822Z,31.60
2022-08-17T10:25:22.810Z,31.39
2022-08-17T10:26:06.789Z,31.31
2022-08-17T10:27:05.765Z,31.46
2022-08-17T10:28:06.740Z,31.60
2022-08-17T10:29:05.761Z,31.73
2022-08-17T10:30:05.783Z,31.80
2022-08-17T10:31:33.230Z,31.88
2022-08-17T10:32:06.688Z,31.98
2022-08-17T10:33:05.852Z,32.10
2022-08-17T10:34:05.852Z,32.22
2022-08-17T10:35:06.574Z,32.30
2022-08-17T10:36:10.537Z,32.22
2022-08-17T10:37:06.669Z,32.11
2022-08-17T10:38:05.628Z,31.93
2022-08-17T10:39:05.604Z,31.92
2022-08-17T10:40:05.672Z,31.96
2022-08-17T10:41:06.516Z,31.95
2022-08-17T10:42:05.628Z,31.99
2022-08-17T10:43:07.029Z,32.07
2022-08-17T10:44:38.799Z,32.13
2022-08-17T10:45:06.567Z,32.24
2022-08-17T10:46:10.634Z,32.29
2022-08-17T10:47:06.767Z,32.22
2022-08-17T10:48:07.443Z,32.15
2022-08-17T10:49:05.654Z,31.99
2022-08-17T10:50:05.476Z,31.96
2022-08-17T10:51:05.468Z,32.03
2022-08-17T10:52:05.484Z,32.14
2022-08-17T10:53:05.432Z,32.25
2022-08-17T10:54:05.436Z,32.32
2022-08-17T10:55:05.409Z,32.47
2022-08-17T10:56:05.429Z,32.51
2022-08-17T10:57:05.378Z,32.49
2022-08-17T10:58:06.424Z,32.39
2022-08-17T10:59:05.479Z,32.25
2022-08-17T11:00:05.572Z,32.37
2022-08-17T11:01:05.955Z,32.42
2022-08-17T11:02:05.329Z,32.49
2022-08-17T11:03:05.326Z,32.62
2022-08-17T11:04:05.290Z,32.73
2022-08-17T11:05:05.942Z,32.64
2022-08-17T11:06:05.323Z,32.58
2022-08-17T11:07:05.260Z,32.40
2022-08-17T11:08:05.921Z,32.30
2022-08-17T11:09:05.954Z,32.30
2022-08-17T11:10:05.216Z,32.21
2022-08-17T11:11:05.304Z,32.18
2022-08-17T11:12:05.224Z,32.17
2022-08-17T11:13:06.003Z,32.11
2022-08-17T11:14:05.301Z,32.00
2022-08-17T11:15:05.331Z,32.10
2022-08-17T11:16:08.362Z,32.10
2022-08-17T11:17:05.112Z,32.05
2022-08-17T11:18:05.196Z,32.17
2022-08-17T11:19:05.144Z,32.17
2022-08-17T11:20:05.136Z,32.21
2022-08-17T11:21:05.117Z,32.33
2022-08-17T11:22:05.058Z,32.42
2022-08-17T11:23:05.148Z,32.47
2022-08-17T11:24:05.047Z,32.54
2022-08-17T11:25:05.866Z,32.57
2022-08-17T11:26:05.782Z,32.59
2022-08-17T11:27:05.159Z,32.69
2022-08-17T11:28:05.624Z,32.74
2022-08-17T11:29:04.981Z,32.80
2022-08-17T11:30:05.145Z,32.76
2022-08-17T11:31:04.941Z,32.79
2022-08-17T11:32:04.962Z,32.77
2022-08-17T11:33:04.922Z,32.71
2022-08-17T11:34:05.101Z,32.49
2022-08-17T11:35:04.915Z,32.47
2022-08-17T11:36:04.975Z,32.42
2022-08-17T11:37:04.969Z,32.42
2022-08-17T11:38:08.682Z,32.40
2022-08-17T11:39:07.082Z,32.33
2022-08-17T11:40:04.886Z,32.30
2022-08-17T11:41:04.878Z,32.43
2022-08-17T11:42:04.819Z,32.48
2022-08-17T11:43:04.817Z,32.36
2022-08-17T11:44:04.776Z,32.30
2022-08-17T11:45:04.789Z,32.25
2022-08-17T11:46:04.751Z,32.14
2022-08-17T11:47:04.753Z,31.95
2022-08-17T11:49:05.734Z,31.80
2022-08-17T11:50:04.731Z,31.75
2022-08-17T11:51:05.941Z,31.79
2022-08-17T11:52:04.703Z,31.85
2022-08-17T11:53:05.016Z,31.84
2022-08-17T11:54:31.091Z,31.79
2022-08-17T11:55:31.916Z,31.91
2022-08-17T11:56:05.657Z,31.93
2022-08-17T11:57:04.659Z,31.91
2022-08-17T11:58:05.773Z,31.99
2022-08-17T11:59:04.700Z,32.07
2022-08-17T12:00:05.586Z,32.07
2022-08-17T12:01:05.995Z,32.06
2022-08-17T12:02:04.698Z,32.18
2022-08-17T12:03:04.678Z,32.48
2022-08-17T12:04:05.738Z,32.81
2022-08-17T12:05:04.497Z,33.06
2022-08-17T12:06:05.494Z,33.39
2022-08-17T12:07:04.528Z,33.63
2022-08-17T12:08:04.566Z,33.70
2022-08-17T12:09:04.493Z,33.68
2022-08-17T12:10:04.868Z,33.68
2022-08-17T12:11:04.820Z,33.63
2022-08-17T12:12:13.717Z,33.39
2022-08-17T12:13:05.496Z,33.20
2022-08-17T12:14:04.419Z,33.26
2022-08-17T12:15:12.310Z,33.30
2022-08-17T12:16:06.604Z,33.36
2022-08-17T12:17:05.405Z,33.51
2022-08-17T12:18:05.389Z,33.64
2022-08-17T12:19:04.337Z,33.80
2022-08-17T12:20:05.088Z,33.92
2022-08-17T12:21:04.319Z,33.90
2022-08-17T12:22:04.302Z,33.70
2022-08-17T12:23:04.456Z,33.51
2022-08-17T12:24:04.317Z,33.36
2022-08-17T12:25:04.281Z,33.43
2022-08-17T12:26:04.335Z,33.60
2022-08-17T12:27:05.075Z,33.58
2022-08-17T12:28:07.414Z,33.57
2022-08-17T12:29:04.218Z,33.53
2022-08-17T12:30:04.220Z,33.52
2022-08-17T12:31:04.177Z,33.61
2022-08-17T12:32:04.313Z,33.74
2022-08-17T12:33:04.179Z,33.83
2022-08-17T12:34:05.388Z,33.83
2022-08-17T12:35:04.155Z,33.79
2022-08-17T12:36:04.157Z,33.67
2022-08-17T12:37:04.106Z,33.63
2022-08-17T12:38:04.105Z,33.55
2022-08-17T12:39:14.441Z,33.52
2022-08-17T12:40:05.168Z,33.48
2022-08-17T12:41:04.053Z,33.46
2022-08-17T12:42:05.006Z,33.49
2022-08-17T12:43:04.095Z,33.41
2022-08-17T12:44:04.946Z,33.23
2022-08-17T12:45:04.956Z,33.20
2022-08-17T12:46:13.172Z,33.07
2022-08-17T12:47:04.974Z,33.07
2022-08-17T12:48:03.976Z,33.13
2022-08-17T12:49:04.153Z,33.26
2022-08-17T12:50:04.929Z,33.22
2022-08-17T12:51:03.935Z,33.23
2022-08-17T12:52:04.038Z,33.22
2022-08-17T12:53:04.146Z,33.30